createdAt,value
2023-03-10T00:08:54.337Z,9.7
2023-03-10T00:18:54.310Z,9.8
2023-03-10T00:28:54.311Z,9.7
2023-03-10T00:38:54.254Z,9.7
2023-03-10T00:48:54.271Z,9.8
2023-03-10T00:58:54.226Z,9.7
2023-03-10T01:08:54.178Z,9.8
2023-03-10T01:18:54.234Z,9.8
2023-03-10T01:28:54.176Z,9.7
2023-03-10T01:38:54.095Z,9.7
2023-03-10T01:48:54.117Z,9.7
2023-03-10T01:58:54.147Z,9.9
2023-03-10T02:08:54.020Z,9.7
2023-03-10T02:18:53.977Z,9.6
2023-03-10T02:28:53.956Z,9.6
2023-03-10T02:38:53.925Z,9.7
2023-03-10T02:48:53.913Z,9.9
2023-03-10T02:58:53.858Z,9.9
2023-03-10T03:08:53.831Z,9.9
2023-03-10T03:18:53.810Z,9.8
2023-03-10T03:28:53.779Z,9.7
2023-03-10T03:38:53.757Z,9.5
2023-03-10T03:48:53.725Z,9.4
2023-03-10T03:58:53.689Z,9.3
2023-03-10T04:08:53.660Z,9.2
2023-03-10T04:18:53.678Z,9.3
2023-03-10T04:28:53.608Z,9.2
2023-03-10T04:38:53.575Z,9
2023-03-10T04:48:53.558Z,8.9
2023-03-10T04:58:53.573Z,8.8
2023-03-10T05:08:53.505Z,8.7
2023-03-10T05:18:53.479Z,8.6
2023-03-10T05:28:53.431Z,8.5
2023-03-10T05:38:53.413Z,8.5
2023-03-10T05:48:53.369Z,8.4
2023-03-10T05:58:53.367Z,8.4
2023-03-10T06:08:53.320Z,8.5
2023-03-10T06:18:53.310Z,8.6
2023-03-10T06:28:53.358Z,8.5
2023-03-10T06:38:53.317Z,8.6
2023-03-10T06:48:53.221Z,8.6
2023-03-10T06:58:53.190Z,8.6
2023-03-10T07:08:53.170Z,8.7
2023-03-10T07:18:53.129Z,8.7
2023-03-10T07:28:53.103Z,8.7
2023-03-10T07:38:53.076Z,8.7
2023-03-10T07:48:53.049Z,8.7
2023-03-10T07:58:53.030Z,8.8
2023-03-10T08:08:53.004Z,9
2023-03-10T08:18:52.998Z,9.1
2023-03-10T08:28:52.984Z,9.5
2023-03-10T08:38:52.988Z,9.9
2023-03-10T08:48:52.929Z,10.1
2023-03-10T08:58:52.874Z,10.4
2023-03-10T09:08:52.863Z,10.7
2023-03-10T09:18:52.810Z,11
2023-03-10T09:28:52.771Z,11.3
2023-03-10T09:38:52.749Z,11.6
2023-03-10T09:48:52.720Z,11.9
2023-03-10T09:58:52.690Z,11.9
2023-03-10T10:08:52.694Z,12
2023-03-10T10:18:52.628Z,11.9
2023-03-10T10:28:52.637Z,12.2
2023-03-10T10:38:52.572Z,12.3
2023-03-10T10:48:52.553Z,12.5
2023-03-10T10:58:52.493Z,12.4
2023-03-10T11:08:52.463Z,12.1
2023-03-10T11:18:52.434Z,12
2023-03-10T11:28:52.606Z,11.9
2023-03-10T11:38:52.404Z,11.1
2023-03-10T11:48:52.355Z,10.5
2023-03-10T11:58:52.326Z,10.2
2023-03-10T12:08:52.304Z,10
2023-03-10T12:18:52.274Z,9.7
2023-03-10T12:28:52.228Z,9.6
2023-03-10T12:38:52.220Z,9.6
2023-03-10T12:48:52.177Z,9.7
2023-03-10T12:58:52.288Z,9.7
2023-03-10T13:08:52.186Z,9.6
2023-03-10T13:18:52.098Z,9.6
2023-03-10T13:28:52.062Z,9.6
2023-03-10T13:38:52.033Z,9.5
2023-03-10T13:48:52.158Z,9.4
2023-03-10T13:58:51.981Z,9.4
2023-03-10T14:08:52.006Z,9.3
2023-03-10T14:18:51.913Z,8.9
2023-03-10T14:28:51.887Z,8.8
2023-03-10T14:38:51.870Z,8.7
2023-03-10T14:48:51.855Z,8.6
2023-03-10T14:58:51.806Z,8.4
2023-03-10T15:08:51.838Z,8.2
2023-03-10T15:18:51.887Z,8
2023-03-10T15:28:51.777Z,7.7
2023-03-10T15:38:51.675Z,7.6
2023-03-10T15:48:51.651Z,7.5
2023-03-10T15:58:51.643Z,7.3
2023-03-10T16:08:51.622Z,7.3
2023-03-10T16:18:51.573Z,7.2
2023-03-10T16:28:51.567Z,7.2
2023-03-10T16:38:51.600Z,7
2023-03-10T16:48:51.540Z,6.5
2023-03-10T16:58:51.479Z,4.8
2023-03-10T17:08:51.451Z,3.6
2023-03-10T17:18:51.441Z,2.5
2023-03-10T17:28:51.587Z,1.4
2023-03-10T17:38:51.531Z,1.1
2023-03-10T17:48:51.576Z,1
2023-03-10T17:58:51.362Z,0.8
2023-03-10T18:08:51.296Z,0.8
2023-03-10T18:18:51.312Z,0.8
2023-03-10T18:28:51.263Z,0.9
2023-03-10T18:38:51.240Z,0.9
2023-03-10T18:48:51.213Z,1
2023-03-10T18:58:51.188Z,1
2023-03-10T19:08:51.224Z,0.9
2023-03-10T19:18:51.148Z,0.9
2023-03-10T19:28:51.131Z,1
2023-03-10T19:38:51.096Z,1.1
2023-03-10T19:48:51.075Z,0.9
2023-03-10T19:58:51.055Z,0.9
2023-03-10T20:08:51.033Z,1
2023-03-10T20:18:51.017Z,1
2023-03-10T20:28:51.006Z,0.9
2023-03-10T20:38:50.984Z,0.9
2023-03-10T20:48:51.004Z,1
2023-03-10T20:58:51.006Z,1
2023-03-10T21:08:50.896Z,1
2023-03-10T21:18:50.894Z,0.9
2023-03-10T21:28:50.864Z,0.8
2023-03-10T21:38:50.865Z,0.8
2023-03-10T21:48:50.811Z,0.9
2023-03-10T21:58:50.790Z,0.9
2023-03-10T22:08:50.766Z,0.9
2023-03-10T22:18:50.766Z,0.8
2023-03-10T22:28:50.738Z,0.7
2023-03-10T22:38:50.696Z,0.7
2023-03-10T22:48:50.673Z,0.7
2023-03-10T22:58:50.646Z,0.7
2023-03-10T23:08:50.625Z,0.8
2023-03-10T23:18:50.611Z,0.8
2023-03-10T23:28:50.610Z,0.9
2023-03-10T23:38:50.557Z,1
2023-03-10T23:48:50.549Z,1
2023-03-10T23:58:50.523Z,1.1
